Time;durP1;ratioP1;P1;durP2;ratioP2;P2;SDS_P1;SDS_P2;PMS_P1;PMS_P2;Temp;Humidity;BMP_temperature;BMP_pressure;BME280_temperature;BME280_humidity;BME280_pressure;Samples;Min_cycle;Max_cycle;Signal;HPM_P1;HPM_P2
2021/10/21 00:00:28;;;;;;;49.10;30.00;;;;;;;;;;5003702;28;20030;-84
2021/10/21 00:02:54;;;;;;;77.72;37.65;;;;;;;;;;5020907;28;20064;-84
2021/10/21 00:05:20;;;;;;;57.60;33.05;;;;;;;;;;5021056;28;20121;-84
2021/10/21 00:07:46;;;;;;;53.17;31.77;;;;;;;;;;5021093;28;20030;-84
2021/10/21 00:10:13;;;;;;;56.95;31.48;;;;;;;;;;5003591;28;20038;-84
2021/10/21 00:12:39;;;;;;;65.45;34.47;;;;;;;;;;5003332;28;20463;-83
2021/10/21 00:15:09;;;;;;;52.38;30.00;;;;;;;;;;5020541;28;20121;-84
2021/10/21 00:17:36;;;;;;;50.00;30.35;;;;;;;;;;5003325;28;20022;-84
2021/10/21 00:20:03;;;;;;;55.15;31.08;;;;;;;;;;5020719;28;20026;-84
2021/10/21 00:22:29;;;;;;;47.78;29.08;;;;;;;;;;5020606;28;20026;-83
2021/10/21 00:24:55;;;;;;;43.38;27.77;;;;;;;;;;5003145;28;20076;-84
2021/10/21 00:27:22;;;;;;;55.15;30.85;;;;;;;;;;5020416;28;20070;-84
2021/10/21 00:29:48;;;;;;;46.45;30.33;;;;;;;;;;5020160;28;20030;-83
2021/10/21 00:32:14;;;;;;;39.92;28.20;;;;;;;;;;5020365;28;20049;-85
2021/10/21 00:34:40;;;;;;;42.47;26.60;;;;;;;;;;5020416;28;20037;-85
2021/10/21 00:37:06;;;;;;;40.65;27.13;;;;;;;;;;5020395;28;20117;-85
2021/10/21 00:39:32;;;;;;;41.38;27.23;;;;;;;;;;5020184;28;20466;-84
2021/10/21 00:41:58;;;;;;;42.70;28.10;;;;;;;;;;5003052;28;20029;-85
2021/10/21 00:44:24;;;;;;;37.67;26.92;;;;;;;;;;5002912;28;20065;-85
2021/10/21 00:46:51;;;;;;;36.33;26.80;;;;;;;;;;5020132;28;20029;-84
2021/10/21 00:49:17;;;;;;;37.97;25.83;;;;;;;;;;5019862;28;20029;-84
2021/10/21 00:51:43;;;;;;;38.72;27.25;;;;;;;;;;5020061;28;20029;-84
2021/10/21 00:54:10;;;;;;;39.95;26.38;;;;;;;;;;5002863;28;20030;-85
2021/10/21 00:56:36;;;;;;;44.78;27.15;;;;;;;;;;5020128;28;20030;-85
2021/10/21 00:59:04;;;;;;;41.28;26.80;;;;;;;;;;5001504;28;20471;-85
2021/10/21 01:01:33;;;;;;;38.00;26.98;;;;;;;;;;5019873;28;20022;-85
2021/10/21 01:03:59;;;;;;;35.50;26.10;;;;;;;;;;5002611;28;20035;-85
2021/10/21 01:06:26;;;;;;;43.30;27.45;;;;;;;;;;5019771;28;20026;-84
2021/10/21 01:08:52;;;;;;;37.13;25.67;;;;;;;;;;5019967;28;20034;-84
2021/10/21 01:11:19;;;;;;;41.92;26.42;;;;;;;;;;5019777;28;20076;-84
2021/10/21 01:13:45;;;;;;;42.10;25.95;;;;;;;;;;5019689;28;20045;-84
2021/10/21 01:16:12;;;;;;;41.67;26.65;;;;;;;;;;5002441;28;20026;-83
2021/10/21 01:18:40;;;;;;;37.78;28.10;;;;;;;;;;5019653;28;20109;-84
2021/10/21 01:21:07;;;;;;;39.80;27.58;;;;;;;;;;5019330;28;20018;-84
2021/10/21 01:23:34;;;;;;;39.55;26.20;;;;;;;;;;5019610;28;20049;-84
2021/10/21 01:26:00;;;;;;;37.28;27.05;;;;;;;;;;5019363;28;20026;-84
2021/10/21 01:28:26;;;;;;;38.50;25.92;;;;;;;;;;5019274;28;20054;-84
2021/10/21 01:30:52;;;;;;;37.83;26.35;;;;;;;;;;5019231;28;20061;-84
2021/10/21 01:33:18;;;;;;;40.55;27.23;;;;;;;;;;5019314;28;20021;-84
2021/10/21 01:35:45;;;;;;;40.17;27.20;;;;;;;;;;5019428;28;20414;-84
2021/10/21 01:38:11;;;;;;;38.60;27.77;;;;;;;;;;5018963;28;20029;-84
2021/10/21 01:40:37;;;;;;;35.38;25.63;;;;;;;;;;5019109;28;20025;-84
2021/10/21 01:43:04;;;;;;;41.42;27.45;;;;;;;;;;5019041;28;20469;-84
2021/10/21 01:45:32;;;;;;;38.08;27.05;;;;;;;;;;5018993;28;20030;-83
2021/10/21 01:47:58;;;;;;;39.90;27.55;;;;;;;;;;5019074;28;20390;-83
2021/10/21 01:50:25;;;;;;;39.25;27.67;;;;;;;;;;5019010;28;20021;-86
2021/10/21 01:52:51;;;;;;;41.45;28.25;;;;;;;;;;5019207;28;20044;-86
2021/10/21 01:55:18;;;;;;;43.00;27.23;;;;;;;;;;5019065;28;20105;-86
2021/10/21 01:57:45;;;;;;;41.17;27.23;;;;;;;;;;5019241;28;20137;-86
2021/10/21 02:00:15;;;;;;;40.05;27.60;;;;;;;;;;5018729;28;20030;-86
2021/10/21 02:02:44;;;;;;;40.55;27.90;;;;;;;;;;5019090;28;20060;-86
2021/10/21 02:05:11;;;;;;;42.05;28.23;;;;;;;;;;5018950;28;20029;-85
2021/10/21 02:07:37;;;;;;;39.85;27.40;;;;;;;;;;5019017;28;20018;-85
2021/10/21 02:10:07;;;;;;;42.70;28.02;;;;;;;;;;5018256;28;20492;-84
2021/10/21 02:12:33;;;;;;;36.72;25.95;;;;;;;;;;5019072;28;20044;-85
2021/10/21 02:14:59;;;;;;;39.33;27.73;;;;;;;;;;5018555;28;20034;-84
2021/10/21 02:17:25;;;;;;;39.97;26.45;;;;;;;;;;5018648;28;20033;-84
2021/10/21 02:19:52;;;;;;;40.05;27.33;;;;;;;;;;5018544;28;20047;-84
2021/10/21 02:22:18;;;;;;;40.13;27.63;;;;;;;;;;5018595;28;20025;-84
2021/10/21 02:24:44;;;;;;;40.97;27.92;;;;;;;;;;5018346;28;20029;-84
2021/10/21 02:27:10;;;;;;;40.53;28.13;;;;;;;;;;5018361;28;20042;-85
2021/10/21 02:29:36;;;;;;;39.67;25.88;;;;;;;;;;5017859;28;20100;-84
2021/10/21 02:32:02;;;;;;;39.03;26.80;;;;;;;;;;5018284;28;20408;-85
2021/10/21 02:34:28;;;;;;;41.33;26.52;;;;;;;;;;5018579;28;20030;-85
2021/10/21 02:36:54;;;;;;;39.28;27.00;;;;;;;;;;5018229;28;20037;-85
2021/10/21 02:39:21;;;;;;;41.58;27.92;;;;;;;;;;5000851;28;20069;-85
2021/10/21 02:41:47;;;;;;;41.08;28.08;;;;;;;;;;5018242;28;20029;-85
2021/10/21 02:44:13;;;;;;;41.08;26.52;;;;;;;;;;5000675;28;20429;-85
2021/10/21 02:46:39;;;;;;;41.05;26.40;;;;;;;;;;5018172;28;20050;-85
2021/10/21 02:49:05;;;;;;;43.88;27.95;;;;;;;;;;5000679;28;20029;-85
2021/10/21 02:51:31;;;;;;;38.72;26.45;;;;;;;;;;5018019;28;20053;-85
2021/10/21 02:53:57;;;;;;;39.92;27.17;;;;;;;;;;5018064;28;20084;-85
2021/10/21 02:56:23;;;;;;;45.15;28.08;;;;;;;;;;5017823;28;20030;-83
2021/10/21 02:58:50;;;;;;;39.80;26.65;;;;;;;;;;5017839;28;20025;-83
2021/10/21 03:01:16;;;;;;;38.22;26.98;;;;;;;;;;5017811;28;20054;-85
2021/10/21 03:03:42;;;;;;;37.28;27.02;;;;;;;;;;5017784;28;20022;-84
2021/10/21 03:06:08;;;;;;;40.78;26.58;;;;;;;;;;5000311;28;20014;-84
2021/10/21 03:08:34;;;;;;;38.20;26.80;;;;;;;;;;5017380;28;20114;-84
2021/10/21 03:11:00;;;;;;;37.40;27.13;;;;;;;;;;5017514;28;20022;-84
2021/10/21 03:13:26;;;;;;;38.28;26.17;;;;;;;;;;5017698;28;20053;-84
2021/10/21 03:15:53;;;;;;;89.10;37.60;;;;;;;;;;5017658;28;20029;-85
2021/10/21 03:18:19;;;;;;;164.60;59.13;;;;;;;;;;5017782;28;20113;-85
2021/10/21 03:20:45;;;;;;;180.07;75.70;;;;;;;;;;5017531;28;20400;-85
2021/10/21 03:23:11;;;;;;;116.93;62.63;;;;;;;;;;5016697;28;20026;-85
2021/10/21 03:25:37;;;;;;;99.28;57.47;;;;;;;;;;5017530;28;20421;-85
2021/10/21 03:28:07;;;;;;;63.50;41.28;;;;;;;;;;4999777;28;20372;-84
2021/10/21 03:30:33;;;;;;;49.97;33.20;;;;;;;;;;4999524;28;20034;-84
2021/10/21 03:32:59;;;;;;;44.03;29.48;;;;;;;;;;5000112;28;20037;-84
2021/10/21 03:35:25;;;;;;;40.40;27.85;;;;;;;;;;5017624;28;20076;-84
2021/10/21 03:37:51;;;;;;;37.70;26.55;;;;;;;;;;4999951;28;20440;-85
2021/10/21 03:40:17;;;;;;;38.47;26.63;;;;;;;;;;5000317;28;20106;-85
2021/10/21 03:42:43;;;;;;;39.28;25.70;;;;;;;;;;5000126;28;20124;-85
2021/10/21 03:45:10;;;;;;;36.55;25.92;;;;;;;;;;5017390;28;20025;-85
2021/10/21 03:47:36;;;;;;;39.65;27.08;;;;;;;;;;5017430;28;20032;-85
2021/10/21 03:50:02;;;;;;;40.17;27.83;;;;;;;;;;5017615;28;20032;-85
2021/10/21 03:52:28;;;;;;;38.75;26.77;;;;;;;;;;5017711;28;20051;-86
2021/10/21 03:54:57;;;;;;;43.75;27.20;;;;;;;;;;4999445;28;20042;-85
2021/10/21 03:57:24;;;;;;;39.85;27.85;;;;;;;;;;5017461;28;20022;-84
2021/10/21 03:59:50;;;;;;;39.65;26.58;;;;;;;;;;5017127;28;20145;-84
2021/10/21 04:02:16;;;;;;;40.53;27.33;;;;;;;;;;5017101;28;20429;-84
2021/10/21 04:04:42;;;;;;;41.95;26.60;;;;;;;;;;5017323;28;20022;-83
2021/10/21 04:07:08;;;;;;;37.47;26.98;;;;;;;;;;5017078;28;20029;-84
2021/10/21 04:09:34;;;;;;;41.60;28.23;;;;;;;;;;4999827;28;20116;-83
2021/10/21 04:12:00;;;;;;;41.47;28.42;;;;;;;;;;4999859;28;20026;-84
2021/10/21 04:14:27;;;;;;;42.75;26.75;;;;;;;;;;5017044;28;20294;-84
2021/10/21 04:16:53;;;;;;;36.72;26.90;;;;;;;;;;5016658;28;20420;-84
2021/10/21 04:19:19;;;;;;;40.05;26.27;;;;;;;;;;4998999;28;20333;-83
2021/10/21 04:21:45;;;;;;;35.65;24.92;;;;;;;;;;5017138;28;20026;-84
2021/10/21 04:24:11;;;;;;;36.78;24.83;;;;;;;;;;5017061;28;20026;-84
2021/10/21 04:26:37;;;;;;;35.65;25.00;;;;;;;;;;5016963;28;20026;-84
2021/10/21 04:29:03;;;;;;;37.50;25.67;;;;;;;;;;5016494;28;20074;-83
2021/10/21 04:31:30;;;;;;;38.33;26.70;;;;;;;;;;4998120;28;20034;-83
2021/10/21 04:33:57;;;;;;;38.83;25.65;;;;;;;;;;5000766;28;20018;-83
2021/10/21 04:36:23;;;;;;;40.20;27.33;;;;;;;;;;5020355;28;20022;-84
2021/10/21 04:38:49;;;;;;;40.25;26.40;;;;;;;;;;5020491;28;20117;-84
2021/10/21 04:41:15;;;;;;;43.70;27.33;;;;;;;;;;5020274;28;20021;-84
2021/10/21 04:43:41;;;;;;;41.17;28.02;;;;;;;;;;5002275;28;20416;-84
2021/10/21 04:46:07;;;;;;;45.20;28.55;;;;;;;;;;5019768;28;20057;-84
2021/10/21 04:48:33;;;;;;;39.35;27.50;;;;;;;;;;5020293;28;20034;-84
2021/10/21 04:51:00;;;;;;;41.97;26.17;;;;;;;;;;5020168;28;20081;-84
2021/10/21 04:53:26;;;;;;;36.80;25.77;;;;;;;;;;5002742;28;20025;-84
2021/10/21 04:55:52;;;;;;;43.80;27.60;;;;;;;;;;5002038;28;20136;-84
2021/10/21 04:58:18;;;;;;;42.80;28.40;;;;;;;;;;5019818;28;20054;-84
2021/10/21 05:00:44;;;;;;;45.95;28.38;;;;;;;;;;5019919;28;20030;-84
2021/10/21 05:03:11;;;;;;;48.53;29.60;;;;;;;;;;5020174;28;20029;-84
2021/10/21 05:05:37;;;;;;;46.45;30.13;;;;;;;;;;5002617;28;20022;-84
2021/10/21 05:08:04;;;;;;;47.22;29.58;;;;;;;;;;5020163;28;20026;-84
2021/10/21 05:10:33;;;;;;;48.70;28.10;;;;;;;;;;5031804;28;20029;-84
2021/10/21 05:12:59;;;;;;;48.78;27.30;;;;;;;;;;5022082;28;20116;-85
2021/10/21 05:15:26;;;;;;;39.25;25.27;;;;;;;;;;5039729;28;20025;-84
2021/10/21 05:17:52;;;;;;;38.33;24.27;;;;;;;;;;5039414;28;20033;-84
2021/10/21 05:20:18;;;;;;;37.33;25.17;;;;;;;;;;5021081;28;20056;-84
2021/10/21 05:22:44;;;;;;;39.22;24.40;;;;;;;;;;5021901;28;20074;-84
2021/10/21 05:25:10;;;;;;;44.55;27.58;;;;;;;;;;5039179;28;20025;-84
2021/10/21 05:27:38;;;;;;;42.10;27.10;;;;;;;;;;5038877;28;20416;-84
2021/10/21 05:30:04;;;;;;;41.55;27.90;;;;;;;;;;5038846;28;20045;-84
2021/10/21 05:32:30;;;;;;;47.08;28.35;;;;;;;;;;5038242;28;20033;-84
2021/10/21 05:34:56;;;;;;;39.17;26.38;;;;;;;;;;5021645;28;20407;-84
2021/10/21 05:37:23;;;;;;;47.25;28.90;;;;;;;;;;5038553;28;20037;-84
2021/10/21 05:39:49;;;;;;;54.15;31.10;;;;;;;;;;5039128;28;20032;-84
2021/10/21 05:42:15;;;;;;;53.42;30.95;;;;;;;;;;5039042;28;20312;-84
2021/10/21 05:44:41;;;;;;;49.15;30.52;;;;;;;;;;5020845;28;20025;-84
2021/10/21 05:47:07;;;;;;;47.50;29.13;;;;;;;;;;5038470;28;20025;-85
2021/10/21 05:49:33;;;;;;;47.65;28.20;;;;;;;;;;5021497;28;20029;-84
2021/10/21 05:51:59;;;;;;;46.35;27.33;;;;;;;;;;5038786;28;20075;-84
2021/10/21 05:54:26;;;;;;;41.80;26.05;;;;;;;;;;5038862;28;20029;-84
2021/10/21 05:56:52;;;;;;;39.92;26.15;;;;;;;;;;5038153;28;20437;-84
2021/10/21 05:59:18;;;;;;;45.97;27.77;;;;;;;;;;5020445;28;20061;-84
2021/10/21 06:01:44;;;;;;;38.00;24.80;;;;;;;;;;5038117;28;20104;-84
2021/10/21 06:04:10;;;;;;;43.60;27.80;;;;;;;;;;5037108;28;20029;-84
2021/10/21 06:06:37;;;;;;;44.53;27.25;;;;;;;;;;5020624;28;20025;-84
2021/10/21 06:09:04;;;;;;;41.30;26.20;;;;;;;;;;5038517;28;20030;-83
2021/10/21 06:11:36;;;;;;;45.35;26.02;;;;;;;;;;5020990;28;20403;-84
2021/10/21 06:14:02;;;;;;;42.50;25.88;;;;;;;;;;5038285;28;20017;-84
2021/10/21 06:16:29;;;;;;;43.90;26.52;;;;;;;;;;5038309;28;20014;-84
2021/10/21 06:18:56;;;;;;;45.20;26.15;;;;;;;;;;5020277;28;20034;-83
2021/10/21 06:21:23;;;;;;;37.83;26.20;;;;;;;;;;5020948;28;20028;-84
2021/10/21 06:23:49;;;;;;;60.78;27.80;;;;;;;;;;5020004;28;20392;-85
2021/10/21 06:26:17;;;;;;;51.15;26.98;;;;;;;;;;5038159;28;20025;-84
2021/10/21 06:28:47;;;;;;;38.33;24.90;;;;;;;;;;5037799;28;20064;-84
2021/10/21 06:31:13;;;;;;;42.80;25.70;;;;;;;;;;5019627;28;20037;-84
2021/10/21 06:33:39;;;;;;;40.65;25.98;;;;;;;;;;5037942;28;20025;-84
2021/10/21 06:36:05;;;;;;;38.03;25.38;;;;;;;;;;5020284;28;20033;-84
2021/10/21 06:38:32;;;;;;;36.08;25.38;;;;;;;;;;5037911;28;20025;-84
2021/10/21 06:40:58;;;;;;;41.03;24.33;;;;;;;;;;5038030;28;20031;-84
2021/10/21 06:43:24;;;;;;;34.88;25.35;;;;;;;;;;5037922;28;20056;-84
2021/10/21 06:45:50;;;;;;;36.45;24.52;;;;;;;;;;5019858;28;20048;-84
2021/10/21 06:48:16;;;;;;;39.60;23.40;;;;;;;;;;5037897;28;20048;-84
2021/10/21 06:50:42;;;;;;;37.13;23.02;;;;;;;;;;5020201;28;20053;-84
2021/10/21 06:53:08;;;;;;;38.38;23.27;;;;;;;;;;5020217;28;20071;-84
2021/10/21 06:55:34;;;;;;;37.65;23.25;;;;;;;;;;5020206;28;20032;-84
2021/10/21 06:58:00;;;;;;;36.55;23.77;;;;;;;;;;5019115;28;20017;-84
2021/10/21 07:00:27;;;;;;;36.55;23.70;;;;;;;;;;5019389;28;20449;-84
2021/10/21 07:02:54;;;;;;;33.40;22.80;;;;;;;;;;5037386;28;20105;-77
2021/10/21 07:05:24;;;;;;;42.65;23.15;;;;;;;;;;5019339;28;20362;-77
2021/10/21 07:07:50;;;;;;;38.00;24.10;;;;;;;;;;5037266;28;20127;-77
2021/10/21 07:10:16;;;;;;;30.20;21.80;;;;;;;;;;5037009;28;20021;-77
2021/10/21 07:12:45;;;;;;;32.80;22.55;;;;;;;;;;5037053;28;20056;-77
2021/10/21 07:15:11;;;;;;;40.45;25.13;;;;;;;;;;5036911;28;20104;-76
2021/10/21 07:17:37;;;;;;;31.08;22.13;;;;;;;;;;5036846;28;20404;-76
2021/10/21 07:20:04;;;;;;;39.03;23.80;;;;;;;;;;5036871;28;20026;-77
2021/10/21 07:22:30;;;;;;;37.03;25.10;;;;;;;;;;5036841;28;20025;-77
2021/10/21 07:24:56;;;;;;;36.10;22.70;;;;;;;;;;5019416;28;20109;-77
2021/10/21 07:27:22;;;;;;;35.50;23.27;;;;;;;;;;5036842;28;20053;-77
2021/10/21 07:29:48;;;;;;;46.15;24.33;;;;;;;;;;5036830;28;20109;-77
2021/10/21 07:32:15;;;;;;;34.90;23.45;;;;;;;;;;5036236;28;20025;-77
2021/10/21 07:34:42;;;;;;;36.10;23.48;;;;;;;;;;5036964;28;20025;-77
2021/10/21 07:37:09;;;;;;;37.38;24.27;;;;;;;;;;5018522;28;20034;-77
2021/10/21 07:39:35;;;;;;;35.03;22.27;;;;;;;;;;5036743;28;20076;-77
2021/10/21 07:42:02;;;;;;;32.58;23.33;;;;;;;;;;5036512;28;20029;-77
2021/10/21 07:44:33;;;;;;;37.95;23.38;;;;;;;;;;5019244;28;20112;-77
2021/10/21 07:46:59;;;;;;;32.65;22.00;;;;;;;;;;5036688;28;20075;-77
2021/10/21 07:49:25;;;;;;;33.88;21.17;;;;;;;;;;5036341;28;20025;-77
2021/10/21 07:51:52;;;;;;;33.60;22.52;;;;;;;;;;5036610;28;20348;-76
2021/10/21 07:54:18;;;;;;;40.95;24.65;;;;;;;;;;5036751;28;20026;-77
2021/10/21 07:56:44;;;;;;;31.52;19.77;;;;;;;;;;5036438;28;20305;-77
2021/10/21 07:59:10;;;;;;;34.55;19.73;;;;;;;;;;5036500;28;20064;-77
2021/10/21 08:01:36;;;;;;;32.45;20.02;;;;;;;;;;5036738;28;20100;-77
2021/10/21 08:04:02;;;;;;;26.33;18.63;;;;;;;;;;5018767;28;20055;-77
2021/10/21 08:06:33;;;;;;;29.38;19.20;;;;;;;;;;5036892;28;20021;-78
2021/10/21 08:08:59;;;;;;;30.45;20.10;;;;;;;;;;5038049;28;20033;-76
2021/10/21 08:11:25;;;;;;;31.52;19.65;;;;;;;;;;5022306;28;20034;-77
2021/10/21 08:13:52;;;;;;;29.63;19.15;;;;;;;;;;5040158;28;20297;-77
2021/10/21 08:16:18;;;;;;;28.60;17.67;;;;;;;;;;5040174;28;20407;-76
2021/10/21 08:18:44;;;;;;;29.25;17.85;;;;;;;;;;5040256;28;20037;-76
2021/10/21 08:21:10;;;;;;;32.95;19.60;;;;;;;;;;5040306;28;20021;-77
2021/10/21 08:23:37;;;;;;;23.50;17.15;;;;;;;;;;5040116;28;20044;-77
2021/10/21 08:26:03;;;;;;;25.08;17.20;;;;;;;;;;5039846;28;20467;-77
2021/10/21 08:28:29;;;;;;;26.73;17.85;;;;;;;;;;5039655;28;20112;-77
2021/10/21 08:30:55;;;;;;;24.45;16.52;;;;;;;;;;5039644;28;20025;-76
2021/10/21 08:33:21;;;;;;;23.13;16.63;;;;;;;;;;5040071;28;20037;-77
2021/10/21 08:35:47;;;;;;;26.58;17.95;;;;;;;;;;5040055;28;20026;-77
2021/10/21 08:38:13;;;;;;;22.45;14.75;;;;;;;;;;5039681;28;20116;-77
2021/10/21 08:40:39;;;;;;;21.48;15.82;;;;;;;;;;5022262;28;20033;-77
2021/10/21 08:43:06;;;;;;;21.17;13.93;;;;;;;;;;5021865;28;20030;-77
2021/10/21 08:45:33;;;;;;;22.83;15.02;;;;;;;;;;5021888;28;20033;-77
2021/10/21 08:48:02;;;;;;;23.67;15.45;;;;;;;;;;5039875;28;20042;-77
2021/10/21 08:50:29;;;;;;;24.58;15.80;;;;;;;;;;5039587;28;20029;-77
2021/10/21 08:52:55;;;;;;;24.40;15.52;;;;;;;;;;5039454;28;20072;-77
2021/10/21 08:55:22;;;;;;;18.98;14.32;;;;;;;;;;5021514;28;20442;-77
2021/10/21 08:57:48;;;;;;;22.58;15.60;;;;;;;;;;5039453;28;20457;-77
2021/10/21 09:00:14;;;;;;;32.28;19.45;;;;;;;;;;5039244;28;20117;-77
2021/10/21 09:02:50;;;;;;;24.40;15.75;;;;;;;;;;5021291;28;20029;-77
2021/10/21 09:08:11;;;;;;;28.65;14.43;;;;;;;;;;4959353;29;20393;-77
2021/10/21 09:10:53;;;;;;;25.92;14.90;;;;;;;;;;4958987;29;20043;-77
2021/10/21 09:13:28;;;;;;;30.00;13.60;;;;;;;;;;4959182;29;20063;-77
2021/10/21 09:15:55;;;;;;;23.30;14.10;;;;;;;;;;4959212;29;20031;-77
2021/10/21 09:18:22;;;;;;;33.38;17.00;;;;;;;;;;4959017;29;20050;-77
2021/10/21 09:20:48;;;;;;;41.70;19.33;;;;;;;;;;4958282;28;20052;-77
2021/10/21 09:23:19;;;;;;;32.42;17.23;;;;;;;;;;4958860;29;20106;-77
2021/10/21 09:25:45;;;;;;;30.77;15.88;;;;;;;;;;4958906;29;20054;-77
2021/10/21 09:28:19;;;;;;;37.67;18.05;;;;;;;;;;4958755;29;20062;-77
2021/10/21 09:30:50;;;;;;;21.10;13.05;;;;;;;;;;4958373;29;20035;-77
2021/10/21 09:33:16;;;;;;;19.55;12.05;;;;;;;;;;4958831;29;20041;-77
2021/10/21 09:36:02;;;;;;;23.00;13.07;;;;;;;;;;4958833;29;20402;-77
2021/10/21 09:38:29;;;;;;;34.60;18.42;;;;;;;;;;4958541;29;20035;-77
2021/10/21 09:41:00;;;;;;;53.58;27.75;;;;;;;;;;4958393;29;20019;-77
2021/10/21 09:43:33;;;;;;;50.75;25.60;;;;;;;;;;4942730;29;20027;-77
2021/10/21 09:45:59;;;;;;;65.68;30.15;;;;;;;;;;5011258;28;20068;-77
2021/10/21 09:48:25;;;;;;;70.93;32.92;;;;;;;;;;5038405;28;20029;-77
2021/10/21 09:50:51;;;;;;;43.17;24.60;;;;;;;;;;5038678;28;20033;-77
2021/10/21 09:53:21;;;;;;;28.70;15.73;;;;;;;;;;5038607;28;20052;-77
2021/10/21 09:55:47;;;;;;;19.15;12.38;;;;;;;;;;5038464;28;20072;-77
2021/10/21 09:58:16;;;;;;;15.13;8.93;;;;;;;;;;5020344;28;20037;-77
2021/10/21 10:00:43;;;;;;;13.25;9.02;;;;;;;;;;5032377;28;20026;-76
2021/10/21 10:03:20;;;;;;;12.60;8.07;;;;;;;;;;5027093;28;20067;-77
2021/10/21 10:05:47;;;;;;;21.00;10.98;;;;;;;;;;5018301;28;20026;-77
2021/10/21 10:08:15;;;;;;;18.25;8.00;;;;;;;;;;5000985;28;20030;-77
2021/10/21 10:10:42;;;;;;;15.00;8.63;;;;;;;;;;5018315;28;20026;-77
2021/10/21 10:13:09;;;;;;;11.38;7.25;;;;;;;;;;5018318;28;20076;-77
2021/10/21 10:15:35;;;;;;;14.80;8.93;;;;;;;;;;5018149;28;20026;-77
2021/10/21 10:18:22;;;;;;;10.93;8.55;;;;;;;;;;5000494;28;20117;-77
2021/10/21 10:20:52;;;;;;;18.77;11.45;;;;;;;;;;5017957;28;20022;-77
2021/10/21 10:23:19;;;;;;;17.70;8.95;;;;;;;;;;5018215;28;20061;-77
2021/10/21 10:25:47;;;;;;;13.73;9.20;;;;;;;;;;5018024;28;20049;-77
2021/10/21 10:28:13;;;;;;;17.63;9.73;;;;;;;;;;5017523;28;20046;-77
2021/10/21 10:30:39;;;;;;;14.10;6.35;;;;;;;;;;5017827;28;20136;-76
2021/10/21 10:33:05;;;;;;;13.73;7.43;;;;;;;;;;5017788;28;20511;-77
2021/10/21 10:35:32;;;;;;;16.00;5.55;;;;;;;;;;5000453;28;20033;-77
2021/10/21 10:38:00;;;;;;;8.85;5.95;;;;;;;;;;5017788;28;20018;-77
2021/10/21 10:40:42;;;;;;;12.27;7.25;;;;;;;;;;5017826;28;20041;-77
2021/10/21 10:43:08;;;;;;;16.42;5.68;;;;;;;;;;5017598;28;20026;-77
2021/10/21 10:45:42;;;;;;;18.73;9.02;;;;;;;;;;5000217;28;20022;-77
2021/10/21 10:48:08;;;;;;;17.00;9.82;;;;;;;;;;5017703;28;20030;-77
2021/10/21 10:50:34;;;;;;;19.85;8.35;;;;;;;;;;4999981;28;20067;-78
2021/10/21 10:53:07;;;;;;;13.35;7.32;;;;;;;;;;5017636;28;20400;-78
2021/10/21 10:55:52;;;;;;;11.02;5.78;;;;;;;;;;5017532;28;20030;-77
2021/10/21 10:58:26;;;;;;;8.88;4.97;;;;;;;;;;5017240;28;20483;-78
2021/10/21 11:00:52;;;;;;;8.98;5.50;;;;;;;;;;4999809;28;20048;-77
2021/10/21 11:03:33;;;;;;;10.15;6.43;;;;;;;;;;5017570;28;20352;-78
2021/10/21 11:06:05;;;;;;;9.73;7.65;;;;;;;;;;5017518;28;20026;-77
2021/10/21 11:08:51;;;;;;;9.05;5.68;;;;;;;;;;5017364;28;20408;-77
2021/10/21 11:11:37;;;;;;;15.50;9.27;;;;;;;;;;5017366;28;20026;-77
2021/10/21 11:14:14;;;;;;;17.13;7.32;;;;;;;;;;5017225;28;20036;-77
2021/10/21 11:16:47;;;;;;;10.93;5.63;;;;;;;;;;4999395;28;20038;-78
2021/10/21 11:19:32;;;;;;;20.52;8.23;;;;;;;;;;5017394;28;20022;-78
2021/10/21 11:21:59;;;;;;;10.88;5.88;;;;;;;;;;5017268;28;20018;-77
2021/10/21 11:24:45;;;;;;;13.52;7.35;;;;;;;;;;5017287;28;20024;-78
2021/10/21 11:27:13;;;;;;;14.93;9.10;;;;;;;;;;5016745;28;20044;-78
2021/10/21 11:29:39;;;;;;;9.85;6.32;;;;;;;;;;5017001;28;20492;-77
2021/10/21 11:32:06;;;;;;;10.63;6.47;;;;;;;;;;5017076;28;20029;-79
2021/10/21 11:34:33;;;;;;;9.82;7.07;;;;;;;;;;4999344;28;20100;-78
2021/10/21 11:37:01;;;;;;;12.07;7.97;;;;;;;;;;5016912;28;20435;-78
2021/10/21 11:39:31;;;;;;;20.98;8.98;;;;;;;;;;4999284;28;20120;-77
2021/10/21 11:41:57;;;;;;;10.90;6.53;;;;;;;;;;4999591;28;20029;-78
2021/10/21 11:44:24;;;;;;;13.50;7.50;;;;;;;;;;5019521;28;20026;-77
2021/10/21 11:46:57;;;;;;;16.92;7.55;;;;;;;;;;5003207;28;20030;-77
2021/10/21 11:49:27;;;;;;;13.95;7.63;;;;;;;;;;5020867;28;20072;-77
2021/10/21 11:52:06;;;;;;;11.43;6.82;;;;;;;;;;5021002;28;20325;-78
2021/10/21 11:54:32;;;;;;;19.00;8.60;;;;;;;;;;5020745;28;20076;-77
2021/10/21 11:56:59;;;;;;;13.93;8.73;;;;;;;;;;5020728;28;20337;-77
2021/10/21 11:59:52;;;;;;;10.57;8.40;;;;;;;;;;5002841;28;20120;-77
2021/10/21 12:02:18;;;;;;;19.80;8.98;;;;;;;;;;5017379;28;20034;-78
2021/10/21 12:04:45;;;;;;;18.23;9.13;;;;;;;;;;5020758;28;20117;-77
2021/10/21 12:07:11;;;;;;;21.90;11.55;;;;;;;;;;5002784;28;20038;-78
2021/10/21 12:09:38;;;;;;;89.97;37.22;;;;;;;;;;5020812;28;20034;-78
2021/10/21 12:12:06;;;;;;;79.18;39.10;;;;;;;;;;5020504;28;20053;-78
2021/10/21 12:14:35;;;;;;;57.53;29.65;;;;;;;;;;5020671;28;20033;-78
2021/10/21 12:17:01;;;;;;;31.65;19.20;;;;;;;;;;5002925;28;20029;-78
2021/10/21 12:19:29;;;;;;;38.90;22.05;;;;;;;;;;5020554;28;20363;-78
2021/10/21 12:22:18;;;;;;;20.80;13.23;;;;;;;;;;5020357;28;20030;-78
2021/10/21 12:24:48;;;;;;;20.70;8.85;;;;;;;;;;5020463;28;20157;-77
2021/10/21 12:27:18;;;;;;;11.50;7.03;;;;;;;;;;5002535;28;20033;-77
2021/10/21 12:29:46;;;;;;;11.50;7.85;;;;;;;;;;5002372;28;20049;-77
2021/10/21 12:32:14;;;;;;;15.13;7.35;;;;;;;;;;5020090;28;20026;-79
2021/10/21 12:34:41;;;;;;;15.15;8.82;;;;;;;;;;5020019;28;20105;-78
2021/10/21 12:37:14;;;;;;;14.85;9.82;;;;;;;;;;5020128;28;20030;-78
2021/10/21 12:39:40;;;;;;;14.07;8.30;;;;;;;;;;5002826;28;20024;-78
2021/10/21 12:42:08;;;;;;;23.67;11.93;;;;;;;;;;5020055;28;20056;-78
2021/10/21 12:44:36;;;;;;;15.88;9.98;;;;;;;;;;5019939;28;20048;-78
2021/10/21 12:47:13;;;;;;;14.48;10.45;;;;;;;;;;5002211;28;20035;-78
2021/10/21 12:49:42;;;;;;;19.25;10.93;;;;;;;;;;5019645;28;20026;-78
2021/10/21 12:52:09;;;;;;;16.17;9.15;;;;;;;;;;5019925;28;20026;-78
2021/10/21 12:54:37;;;;;;;16.25;9.68;;;;;;;;;;5019669;28;20030;-78
2021/10/21 12:57:04;;;;;;;18.60;8.70;;;;;;;;;;5019720;28;20018;-78
2021/10/21 12:59:31;;;;;;;17.48;10.07;;;;;;;;;;5002208;28;20061;-78
2021/10/21 13:01:58;;;;;;;13.73;9.68;;;;;;;;;;5019621;28;20436;-78
2021/10/21 13:04:37;;;;;;;15.02;10.40;;;;;;;;;;5019753;28;20034;-78
2021/10/21 13:07:03;;;;;;;17.88;10.32;;;;;;;;;;5019483;28;20025;-78
2021/10/21 13:09:30;;;;;;;15.82;10.18;;;;;;;;;;5019556;28;20025;-78
2021/10/21 13:11:56;;;;;;;11.90;8.70;;;;;;;;;;5002057;28;20108;-78
2021/10/21 13:14:22;;;;;;;23.25;12.93;;;;;;;;;;5019127;28;20487;-78
2021/10/21 13:16:50;;;;;;;28.65;13.80;;;;;;;;;;5001546;28;20041;-78
2021/10/21 13:19:16;;;;;;;18.10;9.88;;;;;;;;;;5019174;28;20026;-79
2021/10/21 13:21:42;;;;;;;18.83;10.50;;;;;;;;;;5001505;28;20045;-78
2021/10/21 13:24:08;;;;;;;13.68;9.63;;;;;;;;;;5019200;28;20030;-78
2021/10/21 13:26:34;;;;;;;10.40;8.52;;;;;;;;;;5001604;28;20065;-78
2021/10/21 13:29:00;;;;;;;13.00;8.32;;;;;;;;;;5018832;28;20054;-79
2021/10/21 13:31:26;;;;;;;13.63;8.60;;;;;;;;;;5001055;28;20404;-79
2021/10/21 13:33:52;;;;;;;17.73;9.45;;;;;;;;;;5019058;28;20420;-79
2021/10/21 13:36:21;;;;;;;13.98;7.30;;;;;;;;;;5018897;28;20038;-78
2021/10/21 13:38:47;;;;;;;26.60;6.85;;;;;;;;;;5018690;28;20030;-78
2021/10/21 13:41:13;;;;;;;11.27;7.63;;;;;;;;;;5019045;28;20052;-79
2021/10/21 13:43:39;;;;;;;16.60;6.57;;;;;;;;;;5018798;28;20026;-78
2021/10/21 13:46:05;;;;;;;11.25;7.93;;;;;;;;;;5018488;28;20022;-78
2021/10/21 13:48:31;;;;;;;12.88;7.00;;;;;;;;;;5001125;28;20129;-78
2021/10/21 13:50:57;;;;;;;9.55;5.78;;;;;;;;;;5018782;28;20026;-78
2021/10/21 13:53:24;;;;;;;12.02;6.10;;;;;;;;;;5018668;28;20022;-78
2021/10/21 13:55:50;;;;;;;6.35;5.13;;;;;;;;;;5018330;28;20332;-79
2021/10/21 13:58:16;;;;;;;13.98;8.93;;;;;;;;;;5018116;28;20363;-78
2021/10/21 14:00:42;;;;;;;13.43;7.28;;;;;;;;;;5018460;28;20418;-78
2021/10/21 14:03:08;;;;;;;13.25;8.88;;;;;;;;;;5018466;28;20029;-79
2021/10/21 14:05:36;;;;;;;13.15;7.55;;;;;;;;;;5018444;28;20129;-78
2021/10/21 14:08:02;;;;;;;13.02;8.15;;;;;;;;;;5018002;28;20030;-78
2021/10/21 14:10:28;;;;;;;15.98;9.30;;;;;;;;;;5000643;28;20038;-79
2021/10/21 14:12:55;;;;;;;14.07;6.45;;;;;;;;;;5018248;28;20033;-78
2021/10/21 14:15:22;;;;;;;17.50;9.25;;;;;;;;;;5018074;28;20052;-78
2021/10/21 14:17:48;;;;;;;35.05;17.35;;;;;;;;;;5000723;28;20026;-79
2021/10/21 14:20:16;;;;;;;27.85;15.73;;;;;;;;;;5018309;28;20025;-78
2021/10/21 14:22:42;;;;;;;21.70;13.02;;;;;;;;;;5018056;28;20032;-78
2021/10/21 14:25:09;;;;;;;13.50;10.38;;;;;;;;;;5018295;28;20044;-78